Notice: Undefined index: station in /home3/dimtiris/public_html/webApp/metar/index.php on line 4

Metar

Weather conditions for all airports of the world. Just type the ICAO code of an airport.

LGAV 051250Z 07013KT 040V100 9999 FEW030 28/13 Q1017 NOSIG

STATION LGAV
OBSERVED Sun Jul 5, 06:50 MDT
NOW Sun Jul 5, 07:16 MDT
AGE 26 min ago
WIND ENE at 15 mph
VISIBILITY 16 miles
CONDITIONS
CLOUDS partly cloudy
TEMP 82°F (28°C)
DEWPT 55°F (13°C)
HUMIDITY 40%
HEAT INDEX 81°F (27°C)
BAROMETER 1017 hPa (30.03 in Hg)

Get weather info from other station:

Some ICAO codes to try: